createdAt,value
2019-03-28T00:03:53.447Z,28.20
2019-03-28T00:09:00.915Z,28.20
2019-03-28T00:14:09.597Z,28.00
2019-03-28T00:19:16.695Z,28.00
2019-03-28T00:24:25.525Z,28.20
2019-03-28T00:29:32.862Z,28.50
2019-03-28T00:34:40.231Z,28.40
2019-03-28T00:39:47.388Z,28.60
2019-03-28T00:44:54.427Z,28.70
2019-03-28T00:50:01.705Z,28.80
2019-03-28T00:55:09.358Z,28.50
2019-03-28T01:00:16.801Z,28.50
2019-03-28T01:05:24.191Z,28.10
2019-03-28T01:10:32.679Z,27.90
2019-03-28T01:15:57.662Z,27.90
2019-03-28T01:21:06.554Z,28.30
2019-03-28T01:26:15.823Z,28.30
2019-03-28T01:31:25.483Z,28.00
2019-03-28T01:36:53.674Z,28.10
2019-03-28T01:42:02.275Z,28.60
2019-03-28T01:47:10.970Z,28.60
2019-03-28T01:52:18.992Z,28.90
2019-03-28T01:57:26.586Z,29.00
2019-03-28T02:02:34.332Z,29.20
2019-03-28T02:07:42.188Z,29.40
2019-03-28T02:12:50.106Z,29.50
2019-03-28T02:17:58.115Z,29.60
2019-03-28T02:23:07.220Z,29.80
2019-03-28T02:28:17.283Z,30.00
2019-03-28T02:33:29.227Z,30.00
2019-03-28T02:38:37.385Z,30.10
2019-03-28T02:44:05.195Z,30.30
2019-03-28T02:49:14.222Z,30.10
2019-03-28T02:54:22.378Z,30.20
2019-03-28T02:59:31.463Z,30.30
2019-03-28T03:04:42.166Z,30.30
2019-03-28T03:09:51.791Z,30.20
2019-03-28T03:15:00.623Z,30.50
2019-03-28T03:20:10.162Z,30.50
2019-03-28T03:25:18.148Z,30.70
2019-03-28T03:30:25.821Z,30.70
2019-03-28T03:35:34.727Z,30.70
2019-03-28T03:40:42.645Z,31.20
2019-03-28T03:45:50.459Z,31.30
2019-03-28T03:50:58.252Z,31.50
2019-03-28T03:56:06.349Z,31.50
2019-03-28T04:01:14.388Z,31.80
2019-03-28T04:06:22.910Z,32.00
2019-03-28T04:11:33.890Z,32.00
2019-03-28T04:16:41.935Z,32.20
2019-03-28T04:21:49.849Z,32.40
2019-03-28T04:26:57.564Z,32.40
2019-03-28T04:32:05.069Z,32.50
2019-03-28T04:37:13.445Z,32.80
2019-03-28T04:42:21.332Z,32.60
2019-03-28T04:47:29.141Z,32.50
2019-03-28T04:52:39.333Z,32.70
2019-03-28T04:57:47.346Z,33.00
2019-03-28T05:02:55.473Z,33.10
2019-03-28T05:08:03.155Z,33.10
2019-03-28T05:13:10.764Z,33.50
2019-03-28T05:18:19.584Z,33.60
2019-03-28T05:23:27.388Z,33.70
2019-03-28T05:28:35.235Z,33.70
2019-03-28T05:33:42.889Z,33.70
2019-03-28T05:38:52.252Z,33.90
2019-03-28T05:44:00.104Z,33.90
2019-03-28T05:49:08.362Z,34.10
2019-03-28T05:54:16.992Z,34.40
2019-03-28T05:59:26.005Z,34.60
2019-03-28T06:04:34.348Z,34.60
2019-03-28T06:09:42.725Z,34.80
2019-03-28T06:14:50.405Z,35.10
2019-03-28T06:19:58.579Z,35.10
2019-03-28T06:25:08.104Z,35.30
2019-03-28T06:30:16.532Z,35.40
2019-03-28T06:35:24.355Z,35.20
2019-03-28T06:40:32.443Z,35.30
2019-03-28T06:45:41.295Z,35.60
2019-03-28T06:50:49.988Z,35.60
2019-03-28T06:55:58.409Z,35.70
2019-03-28T07:01:06.360Z,35.70
2019-03-28T07:06:14.633Z,35.70
2019-03-28T07:11:23.460Z,35.70
2019-03-28T07:16:31.178Z,35.80
2019-03-28T07:21:40.254Z,35.70
2019-03-28T07:26:48.199Z,35.80
2019-03-28T07:31:56.204Z,35.90
2019-03-28T07:37:03.746Z,36.00
2019-03-28T07:42:12.900Z,35.70
2019-03-28T07:47:21.989Z,35.60
2019-03-28T07:52:31.046Z,35.60
2019-03-28T07:58:16.928Z,35.60
2019-03-28T08:03:25.782Z,35.70
2019-03-28T08:08:38.965Z,35.60
2019-03-28T08:13:44.246Z,35.60
2019-03-28T08:18:52.459Z,35.30
2019-03-28T08:24:00.593Z,35.40
2019-03-28T08:29:09.003Z,35.30
2019-03-28T08:34:18.597Z,35.20
2019-03-28T08:39:27.239Z,35.10
2019-03-28T08:44:36.265Z,34.80
2019-03-28T08:49:44.571Z,34.00
2019-03-28T08:54:52.279Z,33.90
2019-03-28T09:00:01.675Z,33.70
2019-03-28T09:05:11.229Z,33.10
2019-03-28T09:10:21.300Z,32.70
2019-03-28T09:15:43.174Z,31.70
2019-03-28T09:20:40.330Z,31.80
2019-03-28T09:25:47.951Z,31.20
2019-03-28T09:30:56.394Z,31.70
2019-03-28T09:36:04.255Z,31.80
2019-03-28T09:41:16.515Z,31.70
2019-03-28T09:46:26.787Z,31.70
2019-03-28T09:51:35.308Z,29.60
2019-03-28T09:56:44.632Z,29.50
2019-03-28T10:02:13.740Z,30.70
2019-03-28T10:07:22.864Z,30.70
2019-03-28T10:12:30.536Z,31.20
2019-03-28T10:17:42.287Z,31.50
2019-03-28T10:22:48.518Z,31.50
2019-03-28T10:27:57.099Z,31.20
2019-03-28T10:33:06.352Z,31.20
2019-03-28T10:38:15.601Z,31.40
2019-03-28T10:43:24.612Z,31.50
2019-03-28T10:48:32.486Z,31.60
2019-03-28T10:53:40.373Z,31.50
2019-03-28T10:58:48.528Z,31.40
2019-03-28T11:03:58.058Z,31.50
2019-03-28T11:09:06.808Z,31.30
2019-03-28T11:14:14.893Z,31.40
2019-03-28T11:19:22.554Z,31.40
2019-03-28T11:24:30.340Z,31.40
2019-03-28T11:29:40.696Z,31.40
2019-03-28T11:34:48.719Z,31.40
2019-03-28T11:40:25.927Z,31.40
2019-03-28T11:45:33.493Z,31.40
2019-03-28T11:50:41.320Z,31.30
2019-03-28T11:55:50.350Z,31.30
2019-03-28T12:00:59.189Z,31.20
2019-03-28T12:06:07.721Z,30.90
2019-03-28T12:11:15.384Z,31.10
2019-03-28T12:16:23.011Z,31.10
2019-03-28T12:21:30.657Z,30.90
2019-03-28T12:26:39.445Z,31.00
2019-03-28T12:31:46.891Z,31.00
2019-03-28T12:36:55.453Z,31.00
2019-03-28T12:42:03.496Z,31.00
2019-03-28T12:47:13.301Z,30.90
2019-03-28T12:52:20.794Z,30.90
2019-03-28T12:57:30.585Z,30.80
2019-03-28T13:02:38.419Z,30.80
2019-03-28T13:07:48.892Z,30.80
2019-03-28T13:12:56.955Z,30.80
2019-03-28T13:18:04.565Z,30.70
2019-03-28T13:23:12.323Z,30.60
2019-03-28T13:28:21.230Z,30.60
2019-03-28T13:33:30.217Z,30.70
2019-03-28T13:38:38.590Z,30.70
2019-03-28T13:43:46.194Z,30.70
2019-03-28T13:48:54.780Z,30.70
2019-03-28T13:54:03.490Z,30.60
2019-03-28T13:59:11.194Z,30.60
2019-03-28T14:04:19.360Z,30.60
2019-03-28T14:09:27.238Z,30.60
2019-03-28T14:14:35.084Z,30.60
2019-03-28T14:19:43.388Z,30.50
2019-03-28T14:24:52.582Z,30.50
2019-03-28T14:30:20.559Z,30.50
2019-03-28T14:35:29.145Z,30.50
2019-03-28T14:40:37.018Z,30.40
2019-03-28T14:45:44.754Z,30.40
2019-03-28T14:50:59.016Z,30.40
2019-03-28T14:56:06.592Z,30.30
2019-03-28T15:01:15.454Z,30.30
2019-03-28T15:06:24.712Z,30.30
2019-03-28T15:11:34.450Z,30.30
2019-03-28T15:16:42.222Z,30.20
2019-03-28T15:21:50.750Z,30.20
2019-03-28T15:26:58.890Z,30.20
2019-03-28T15:32:07.031Z,30.20
2019-03-28T15:37:14.814Z,30.20
2019-03-28T15:42:23.171Z,30.10
2019-03-28T15:47:31.874Z,30.10
2019-03-28T15:52:40.425Z,30.10
2019-03-28T15:57:49.069Z,30.10
2019-03-28T16:02:57.962Z,30.00
2019-03-28T16:08:05.963Z,30.00
2019-03-28T16:13:17.322Z,30.00
2019-03-28T16:18:25.278Z,30.00
2019-03-28T16:23:33.028Z,29.90
2019-03-28T16:28:41.486Z,29.80
2019-03-28T16:33:49.699Z,29.80
2019-03-28T16:38:59.416Z,29.80
2019-03-28T16:44:07.657Z,29.70
2019-03-28T16:49:16.725Z,29.80
2019-03-28T16:54:24.776Z,29.80
2019-03-28T16:59:32.348Z,29.70
2019-03-28T17:04:41.437Z,29.80
2019-03-28T17:09:49.440Z,29.70
2019-03-28T17:14:57.152Z,29.70
2019-03-28T17:20:05.605Z,29.60
2019-03-28T17:25:13.293Z,29.50
2019-03-28T17:30:21.099Z,29.50
2019-03-28T17:35:29.819Z,29.40
2019-03-28T17:40:38.735Z,29.50
2019-03-28T17:45:47.179Z,29.50
2019-03-28T17:50:55.755Z,29.50
2019-03-28T17:56:03.835Z,29.50
2019-03-28T18:01:12.082Z,29.50
2019-03-28T18:06:20.081Z,29.50
2019-03-28T18:11:28.039Z,29.40
2019-03-28T18:16:37.282Z,29.40
2019-03-28T18:21:45.920Z,29.40
2019-03-28T18:26:54.170Z,29.40
2019-03-28T18:32:02.316Z,29.30
2019-03-28T18:37:10.222Z,29.30
2019-03-28T18:42:17.955Z,28.80
2019-03-28T18:47:25.640Z,29.20
2019-03-28T18:52:33.766Z,29.20
2019-03-28T18:57:42.183Z,28.80
2019-03-28T19:02:50.923Z,29.00
2019-03-28T19:07:58.873Z,29.00
2019-03-28T19:13:07.224Z,29.00
2019-03-28T19:18:15.526Z,29.00
2019-03-28T19:23:24.833Z,29.10
2019-03-28T19:28:33.833Z,29.10
2019-03-28T19:33:41.967Z,29.10
2019-03-28T19:38:49.812Z,29.10
2019-03-28T19:43:57.596Z,29.00
2019-03-28T19:49:05.238Z,29.00
2019-03-28T19:54:12.627Z,29.00
2019-03-28T19:59:20.572Z,29.00
2019-03-28T20:04:28.877Z,28.90
2019-03-28T20:09:36.919Z,28.90
2019-03-28T20:14:45.108Z,28.90
2019-03-28T20:19:53.194Z,28.90
2019-03-28T20:25:01.378Z,28.90
2019-03-28T20:30:10.439Z,28.90
2019-03-28T20:35:18.514Z,28.90
2019-03-28T20:40:26.847Z,28.90
2019-03-28T20:45:35.070Z,28.80
2019-03-28T20:50:42.477Z,28.80
2019-03-28T20:55:53.773Z,28.70
2019-03-28T21:01:02.480Z,28.70
2019-03-28T21:06:15.478Z,28.70
2019-03-28T21:11:20.140Z,28.70
2019-03-28T21:16:28.067Z,28.70
2019-03-28T21:21:36.841Z,28.70
2019-03-28T21:26:45.303Z,28.70
2019-03-28T21:31:53.573Z,28.70
2019-03-28T21:37:01.702Z,28.70
2019-03-28T21:42:09.729Z,28.70
2019-03-28T21:47:17.382Z,28.60
2019-03-28T21:52:26.390Z,28.60
2019-03-28T21:57:35.015Z,28.60
2019-03-28T22:02:43.432Z,28.50
2019-03-28T22:07:52.068Z,28.60
2019-03-28T22:13:01.015Z,28.50
2019-03-28T22:18:11.135Z,28.50
2019-03-28T22:23:19.269Z,28.50
2019-03-28T22:28:27.461Z,28.50
2019-03-28T22:33:36.394Z,28.50
2019-03-28T22:38:45.312Z,28.50
2019-03-28T22:43:53.390Z,28.50
2019-03-28T22:49:30.409Z,28.40
2019-03-28T22:54:39.298Z,28.40
2019-03-28T22:59:47.419Z,28.40
2019-03-28T23:04:55.784Z,28.40
2019-03-28T23:10:03.696Z,28.40
2019-03-28T23:15:12.999Z,28.40
2019-03-28T23:20:23.809Z,28.40
2019-03-28T23:25:32.087Z,28.40
2019-03-28T23:30:40.034Z,28.40
2019-03-28T23:35:48.475Z,28.40
2019-03-28T23:40:57.253Z,28.50
2019-03-28T23:46:04.877Z,28.50
2019-03-28T23:51:14.716Z,28.50
2019-03-28T23:56:23.246Z,28.50
